Latest Weather Observations for Dalby

IDQ60801

Issued at 8:32 am EST Sunday 1 May 2016 (issued every 30 minutes, with the page automatically refreshed every 10 minutes)

About weather observations | Map of weather stations | Latest weather observations for QLD | Other Formats
Station Details ID: 041522 Name: DALBY AIRPORT Lat: -27.16 Lon: 151.26 Height: 343.9 m
Data from the previous 72 hours. | See also: Recent months at Dalby
Date/Time
EST
Temp
°C
App
Temp
°C
Dew
Point
Rel
Hum
%
Delta-T
°C
Wind Press
QNH
hPa
Press
MSL
hPa
Rain
since 9 am
mm
Dir
 
Spd
km/h
Gust
km/h
Spd
kts
Gust
kts
01/08:30am 21.4 21.5 16.6 74 2.9 WSW 11 15 6 8 1020.3 1019.1 0.0
01/08:00am 19.5 20.0 15.6 78 2.3 W 7 9 4 5 1020.3 1019.1 0.0
01/07:30am 17.5 17.7 14.8 84 1.6 NW 7 7 4 4 1020.0 1018.8 0.0
01/07:00am 15.1 14.8 12.6 85 1.4 NNW 6 9 3 5 1019.8 1018.6 0.0
01/06:30am 14.1 14.6 11.6 85 1.4 CALM 0 0 0 0 1019.3 1018.1 0.0
01/06:00am 16.4 17.9 14.6 89 1.0 CALM 0 0 0 0 1019.2 1018.0 0.0
01/05:30am 16.5 16.9 14.7 89 1.1 SSE 6 7 3 4 1019.0 1017.8 0.0
01/05:00am 16.8 16.7 15.0 89 1.1 SE 9 13 5 7 1018.5 1017.2 0.0
01/04:30am 16.5 15.9 14.5 88 1.2 SE 11 13 6 7 1018.3 1017.0 0.0
01/04:00am 17.1 17.1 15.3 89 1.1 SE 9 11 5 6 1018.1 1016.8 0.0
01/03:30am 16.6 15.9 14.4 87 1.3 ESE 11 13 6 7 1018.0 1016.7 0.0
01/03:00am 16.9 16.6 14.5 86 1.4 E 9 9 5 5 1018.0 1016.7 0.0
01/02:30am 17.3 17.0 14.4 83 1.7 ESE 9 11 5 6 1018.0 1016.7 0.0
01/02:00am 17.8 17.2 14.7 82 1.8 E 11 13 6 7 1018.2 1016.9 0.0
01/01:30am 18.5 17.7 15.2 81 2.0 E 13 15 7 8 1018.3 1017.0 0.0
01/01:00am 18.6 17.9 15.3 81 2.0 E 13 15 7 8 1018.5 1017.2 0.0
01/12:30am 18.3 17.8 15.0 81 2.0 E 11 13 6 7 1018.8 1017.6 0.0
01/12:00am 18.4 17.8 14.7 79 2.2 E 11 13 6 7 1019.1 1017.9 0.0
 
Date/Time
EST
Temp
°C
App
Temp
°C
Dew
Point
Rel
Hum
%
Delta-T
°C
Wind Press
QNH
hPa
Press
MSL
hPa
Rain
since 9 am
mm
Dir
 
Spd
km/h
Gust
km/h
Spd
kts
Gust
kts
30/11:30pm 18.7 18.6 15.0 79 2.2 E 9 13 5 7 1019.3 1018.1 0.0
30/11:00pm 19.2 18.8 15.3 78 2.3 E 11 13 6 7 1019.5 1018.3 0.0
30/10:30pm 20.3 20.1 15.7 75 2.8 ENE 11 13 6 7 1019.6 1018.4 0.0
30/10:00pm 21.3 20.6 16.3 73 3.1 ENE 15 17 8 9 1019.7 1018.5 0.0
30/09:30pm 21.9 20.8 16.4 71 3.4 ENE 17 22 9 12 1019.7 1018.5 0.0
30/09:00pm 22.4 20.7 16.2 68 3.8 ENE 20 24 11 13 1019.8 1018.6 0.0
30/08:30pm 22.9 20.4 16.2 66 4.1 ENE 24 28 13 15 1019.5 1018.3 0.0
30/08:00pm 23.4 20.2 16.2 64 4.4 ENE 28 33 15 18 1019.3 1018.1 0.0
30/07:30pm 24.2 21.2 14.9 56 5.6 ENE 24 30 13 16 1019.1 1017.9 0.0
30/07:00pm 24.8 22.0 14.3 52 6.3 ENE 22 28 12 15 1018.6 1017.4 0.0
30/06:30pm 24.8 22.4 12.7 47 7.1 E 17 20 9 11 1018.3 1017.0 0.0
30/06:00pm 24.9 22.6 11.8 44 7.5 E 15 17 8 9 1018.2 1016.9 0.0
30/05:30pm 25.7 23.8 11.8 42 8.1 E 13 15 7 8 1018.0 1016.7 0.0
30/05:00pm 27.1 25.6 12.0 39 8.8 E 11 15 6 8 1017.9 1016.6 0.0
30/04:30pm 28.3 26.1 12.2 37 9.5 E 15 19 8 10 1017.4 1016.2 0.0
30/04:00pm 28.6 26.9 12.5 37 9.5 ESE 13 19 7 10 1017.2 1016.0 0.0
30/03:30pm 28.4 26.7 12.3 37 9.5 E 13 20 7 11 1017.2 1016.0 0.0
30/03:00pm 28.9 28.1 11.0 33 10.4 S 6 11 3 6 1017.2 1016.0 0.0
30/02:30pm 29.2 27.5 11.3 33 10.4 S 11 15 6 8 1017.5 1016.3 0.0
30/02:00pm 29.6 28.0 11.6 33 10.6 SSE 11 19 6 10 1017.6 1016.4 0.0
30/01:30pm 29.3 27.9 12.3 35 10.1 ESE 11 17 6 9 1018.0 1016.7 0.0
30/01:00pm 28.9 28.1 12.8 37 9.6 WSW 9 19 5 10 1018.5 1017.2 0.0
30/12:30pm 27.8 27.3 12.6 39 9.0 SE 7 17 4 9 1019.0 1017.8 0.0
30/12:00pm 27.9 26.3 12.7 39 9.0 ENE 13 20 7 11 1019.8 1018.6 0.0
30/11:30am 27.5 27.0 12.7 40 8.8 NE 7 13 4 7 1020.4 1019.2 0.0
30/11:00am 26.2 25.5 13.3 45 7.7 NNE 9 17 5 9 1021.0 1019.7 0.0
30/10:30am 26.0 25.7 14.5 49 7.0 ENE 9 15 5 8 1021.5 1020.3 0.0
30/10:00am 24.9 24.5 14.1 51 6.5 ENE 9 19 5 10 1022.0 1020.8 0.0
30/09:30am 24.1 24.7 15.9 60 5.0 ENE 7 15 4 8 1022.2 1021.0 0.0
30/09:00am 22.2 22.0 15.8 67 3.9 E 11 15 6 8 1022.3 1021.1 0.0
30/08:30am 21.0 21.1 16.4 75 2.8 ESE 11 17 6 9 1022.3 1021.1 0.0
30/08:00am 18.7 19.4 16.1 85 1.6 ESE 7 11 4 6 1022.1 1020.9 0.0
30/07:30am 16.9 18.5 14.9 88 1.2 CALM 0 0 0 0 1021.9 1020.7 0.0
30/07:00am 16.5 18.1 14.9 90 0.9 CALM 0 4 0 2 1021.7 1020.5 0.0
30/06:30am 15.9 15.9 14.3 90 0.9 ESE 7 9 4 5 1021.2 1020.0 0.0
30/06:00am 15.7 15.8 13.9 89 1.0 SSE 6 7 3 4 1021.1 1019.9 0.0
30/05:30am 16.0 15.7 14.5 91 0.9 SE 9 11 5 6 1020.7 1019.5 0.0
30/05:00am 15.1 15.1 13.5 90 0.9 ESE 6 9 3 5 1020.5 1019.3 0.0
30/04:30am 14.8 15.7 12.8 88 1.1 CALM 0 6 0 3 1020.4 1019.2 0.0
30/04:00am 15.0 15.9 12.9 87 1.2 CALM 0 2 0 1 1020.4 1019.2 0.0
30/03:30am 15.7 14.7 13.4 86 1.3 E 11 13 6 7 1020.2 1019.0 0.0
30/03:00am 16.2 15.1 14.2 88 1.2 E 13 15 7 8 1020.2 1019.0 0.0
30/02:30am 16.3 15.1 14.0 86 1.3 E 13 15 7 8 1020.4 1019.2 0.0
30/02:00am 16.8 15.7 14.4 86 1.4 ESE 13 15 7 8 1020.7 1019.5 0.0
30/01:30am 17.0 16.4 14.5 85 1.5 E 11 13 6 7 1021.2 1020.0 0.0
30/01:00am 17.6 16.9 15.4 87 1.3 ESE 13 15 7 8 1021.4 1020.2 0.0
30/12:30am 17.7 17.2 15.0 84 1.6 E 11 13 6 7 1021.5 1020.3 0.0
30/12:00am 18.1 17.6 14.8 81 1.9 ENE 11 13 6 7 1021.7 1020.5 0.0
 
Date/Time
EST
Temp
°C
App
Temp
°C
Dew
Point
Rel
Hum
%
Delta-T
°C
Wind Press
QNH
hPa
Press
MSL
hPa
Rain
since 9 am
mm
Dir
 
Spd
km/h
Gust
km/h
Spd
kts
Gust
kts
29/11:30pm 18.6 18.2 15.1 80 2.1 E 11 13 6 7 1022.1 1020.9 0.0
29/11:00pm 19.3 17.5 15.6 79 2.2 E 19 22 10 12 1022.1 1020.9 0.0
29/10:30pm 19.5 18.2 15.8 79 2.2 E 17 20 9 11 1022.4 1021.2 0.0
29/10:00pm 19.4 18.5 15.9 80 2.1 E 15 17 8 9 1022.4 1021.2 0.0
29/09:30pm 19.7 17.9 16.0 79 2.2 E 20 26 11 14 1022.3 1021.1 0.0
29/09:00pm 19.6 17.8 15.9 79 2.2 E 20 24 11 13 1022.2 1021.0 0.0
29/08:30pm 19.8 17.6 15.9 78 2.4 E 22 30 12 16 1022.0 1020.8 0.0
29/08:00pm 20.1 18.2 15.7 76 2.6 E 20 28 11 15 1022.0 1020.8 0.0
29/07:30pm 20.5 17.9 15.9 75 2.8 E 24 33 13 18 1021.7 1020.5 0.0
29/07:00pm 20.7 18.1 15.9 74 2.9 E 24 33 13 18 1021.5 1020.3 0.0
29/06:30pm 21.0 18.4 15.8 72 3.2 ENE 24 33 13 18 1021.2 1020.0 0.0
29/06:00pm 21.7 17.8 15.5 68 3.7 ENE 30 35 16 19 1020.7 1019.5 0.0
29/05:30pm 22.5 18.1 15.6 65 4.2 ENE 33 44 18 24 1020.3 1019.1 0.0
29/05:00pm 24.2 20.5 14.9 56 5.6 E 28 33 15 18 1020.0 1018.8 0.0
29/04:30pm 25.0 20.5 15.0 53 6.1 E 32 39 17 21 1019.7 1018.5 0.0
29/04:00pm 26.3 22.5 14.7 48 7.0 ENE 28 41 15 22 1019.4 1018.2 0.0
29/03:30pm 26.5 21.8 14.3 47 7.4 E 32 43 17 23 1019.3 1018.1 0.0
29/03:00pm 27.1 23.5 14.1 44 7.8 ENE 26 32 14 17 1019.3 1018.1 0.0
29/02:30pm 26.1 22.3 14.6 49 7.0 E 28 39 15 21 1019.3 1018.1 0.0
29/02:00pm 26.5 22.4 13.9 45 7.6 ENE 28 35 15 19 1019.4 1018.2 0.0
29/01:30pm 26.6 22.7 14.4 47 7.4 E 28 35 15 19 1019.7 1018.5 0.0
29/01:00pm 26.7 24.2 13.4 43 7.9 NE 19 28 10 15 1020.1 1018.9 0.0
29/12:30pm 27.1 24.6 14.1 44 7.9 E 20 32 11 17 1020.4 1019.2 0.0
29/12:00pm 27.4 24.5 14.1 44 8.0 ENE 22 33 12 18 1021.2 1020.0 0.0
29/11:30am 26.4 23.2 14.2 47 7.4 E 24 35 13 19 1021.8 1020.6 0.0
29/11:00am 26.1 23.5 13.9 47 7.3 ENE 20 28 11 15 1022.4 1021.2 0.0
29/10:30am 25.5 21.9 14.3 50 6.8 ENE 26 35 14 19 1023.1 1021.9 0.0
29/10:00am 25.4 21.6 14.8 52 6.4 ENE 28 37 15 20 1023.6 1022.5 0.0
29/09:30am 23.7 19.4 14.4 56 5.6 ENE 30 37 16 20 1023.8 1022.7 0.0
29/09:00am 22.7 19.3 14.8 61 4.7 E 26 33 14 18 1024.1 1022.9 0.0
29/08:30am 21.6 18.7 15.2 67 3.9 E 24 32 13 17 1024.1 1022.9 0.0
29/08:00am 18.9 17.2 14.6 76 2.5 ESE 17 20 9 11 1023.8 1022.7 0.0
29/07:30am 17.0 15.5 14.1 83 1.7 SE 15 19 8 10 1023.5 1022.3 0.0
29/07:00am 15.1 13.2 13.1 88 1.1 SE 15 19 8 10 1023.3 1022.1 0.0
29/06:30am 14.7 12.4 13.1 90 0.9 SE 17 20 9 11 1023.1 1021.9 0.0
29/06:00am 15.1 13.7 13.5 90 0.9 SE 13 17 7 9 1023.0 1021.8 0.0
29/05:30am 14.2 13.2 12.4 89 1.0 SSE 9 13 5 7 1022.6 1021.4 0.0
29/05:00am 14.7 13.5 12.7 88 1.1 SSE 11 11 6 6 1022.5 1021.3 0.0
29/04:30am 15.4 14.8 13.4 88 1.1 SE 9 15 5 8 1022.6 1021.4 0.0
29/04:00am 15.3 13.2 13.5 89 1.0 ESE 17 19 9 10 1022.4 1021.2 0.0
29/03:30am 14.8 12.4 12.7 87 1.2 ESE 17 19 9 10 1022.0 1020.8 0.0
29/03:00am 15.7 13.6 13.5 87 1.2 ESE 17 20 9 11 1022.2 1021.0 0.0
29/02:30am 15.7 13.9 13.4 86 1.3 ESE 15 19 8 10 1022.3 1021.1 0.0
29/02:00am 15.9 13.8 13.6 86 1.3 SE 17 19 9 10 1022.6 1021.4 0.0
29/01:30am 16.2 14.8 13.3 83 1.6 SE 13 13 7 7 1023.0 1021.8 0.0
29/01:00am 16.8 16.1 13.1 79 2.1 SSE 9 13 5 7 1023.2 1022.0 0.0
29/12:30am 18.1 15.6 14.2 78 2.3 E 20 24 11 13 1023.2 1022.0 0.0
29/12:00am 18.4 15.2 14.3 77 2.4 E 24 30 13 16 1023.0 1021.8 0.0
 
Date/Time
EST
Temp
°C
App
Temp
°C
Dew
Point
Rel
Hum
%
Delta-T
°C
Wind Press
QNH
hPa
Press
MSL
hPa
Rain
since 9 am
mm
Dir
 
Spd
km/h
Gust
km/h
Spd
kts
Gust
kts
28/11:30pm 18.5 15.3 14.2 76 2.5 E 24 32 13 17 1023.2 1022.0 0.0
28/11:00pm 18.5 15.6 14.0 75 2.6 E 22 28 12 15 1023.3 1022.1 0.0
28/10:30pm 18.5 16.1 13.8 74 2.7 E 19 22 10 12 1023.3 1022.1 0.0
28/10:00pm 19.2 15.8 13.8 71 3.1 E 24 32 13 17 1023.3 1022.1 0.0
28/09:30pm 19.6 15.6 14.0 70 3.3 ENE 28 35 15 19 1023.3 1022.1 0.0
28/09:00pm 19.7 16.2 13.4 67 3.6 E 24 32 13 17 1023.2 1022.0 0.0
28/08:30pm 20.2 16.7 13.4 65 3.9 ENE 24 32 13 17 1023.0 1021.8 0.0
28/08:00pm 21.0 17.2 13.7 63 4.3 ENE 26 32 14 17 1022.9 1021.7 0.0
28/07:30pm 21.5 18.0 13.4 60 4.7 ENE 24 28 13 15 1022.5 1021.3 0.0
28/07:00pm 22.4 18.8 13.2 56 5.4 ENE 24 33 13 18 1022.2 1021.0 0.0
28/06:30pm 23.2 19.0 12.5 51 6.2 ENE 26 33 14 18 1021.7 1020.5 0.0
28/06:00pm 23.9 19.9 11.9 47 6.9 ENE 24 28 13 15 1021.4 1020.2 0.0
28/05:30pm 24.8 21.4 11.4 43 7.7 ENE 20 28 11 15 1021.1 1019.9 0.0
28/05:00pm 25.6 22.5 11.7 42 8.0 ENE 19 28 10 15 1020.7 1019.5 0.0
28/04:30pm 26.0 22.3 11.4 40 8.4 ENE 22 28 12 15 1020.5 1019.3 0.0
28/04:00pm 26.9 23.6 11.0 37 9.1 E 19 28 10 15 1020.4 1019.2 0.0
28/03:30pm 27.0 21.9 10.7 36 9.3 ESE 28 39 15 21 1020.2 1019.0 0.0
28/03:00pm 28.0 24.2 11.1 35 9.8 E 22 35 12 19 1020.4 1019.2 0.0
28/02:30pm 26.8 22.9 9.6 34 9.7 ESE 20 28 11 15 1020.5 1019.3 0.0
28/02:00pm 27.7 22.5 10.4 34 9.9 E 28 35 15 19 1020.6 1019.4 0.0
28/01:30pm 27.6 23.3 10.8 35 9.7 ESE 24 33 13 18 1020.6 1019.4 0.0
28/01:00pm 26.9 22.8 11.4 38 8.9 E 24 32 13 17 1021.1 1019.9 0.0
28/12:30pm 26.7 23.5 12.0 40 8.6 ENE 20 43 11 23 1021.5 1020.3 0.0
28/12:00pm 25.0 21.0 11.9 44 7.6 E 24 33 13 18 1022.1 1020.9 0.0
28/11:30am 26.1 21.6 12.5 42 8.0 ENE 28 41 15 22 1022.6 1021.4 0.0
28/11:02am 25.3 20.9 12.9 46 7.3 ENE 28 46 15 25 1023.0 1021.8 0.0
28/11:00am 25.5 20.7 13.0 46 7.4 ENE 30 46 16 25 1023.0 1021.8 0.0
28/10:30am 25.5 20.2 13.0 46 7.4 ENE 33 43 18 23 1023.1 1021.9 0.0
28/10:00am 24.4 19.4 13.9 52 6.2 ENE 33 41 18 22 1023.3 1022.1 0.0
28/09:30am 24.1 18.7 13.9 53 6.1 ENE 35 50 19 27 1023.3 1022.1 0.0
28/09:00am 22.5 17.0 14.6 61 4.7 E 37 50 20 27 1023.6 1022.5 0.0

Other Formats:

Comma delimited format used in spreadsheet applications
http://www.bom.gov.au/fwo/IDQ60801/IDQ60801.94542.axf

JavaScript Object Notation format (JSON) in row-major order
http://www.bom.gov.au/fwo/IDQ60801/IDQ60801.94542.json